sensor_id;sensor_type;location;lat;lon;timestamp;pressure;altitude;pressure_sealevel;temperature;humidity
60832;BME280;46665;51.558;-0.448;2023-04-30T00:01:36;101743.41;;;10.32;100.00
60832;BME280;46665;51.558;-0.448;2023-04-30T00:04:02;101739.47;;;10.23;100.00
60832;BME280;46665;51.558;-0.448;2023-04-30T00:06:27;101752.72;;;10.19;100.00
60832;BME280;46665;51.558;-0.448;2023-04-30T00:08:53;101748.53;;;10.12;100.00
60832;BME280;46665;51.558;-0.448;2023-04-30T00:11:18;101752.84;;;10.08;100.00
60832;BME280;46665;51.558;-0.448;2023-04-30T00:13:44;101750.59;;;10.05;100.00
60832;BME280;46665;51.558;-0.448;2023-04-30T00:16:09;101750.28;;;10.01;100.00
60832;BME280;46665;51.558;-0.448;2023-04-30T00:18:35;101749.06;;;9.92;100.00
60832;BME280;46665;51.558;-0.448;2023-04-30T00:21:01;101750.09;;;9.86;100.00
60832;BME280;46665;51.558;-0.448;2023-04-30T00:23:26;101748.34;;;9.80;100.00
60832;BME280;46665;51.558;-0.448;2023-04-30T00:25:51;101749.34;;;9.73;100.00
60832;BME280;46665;51.558;-0.448;2023-04-30T00:28:17;101748.44;;;9.68;100.00
60832;BME280;46665;51.558;-0.448;2023-04-30T00:30:42;101735.28;;;9.60;100.00
60832;BME280;46665;51.558;-0.448;2023-04-30T00:33:07;101735.19;;;9.54;100.00
60832;BME280;46665;51.558;-0.448;2023-04-30T00:35:33;101740.88;;;9.53;100.00
60832;BME280;46665;51.558;-0.448;2023-04-30T00:37:58;101736.75;;;9.50;100.00
60832;BME280;46665;51.558;-0.448;2023-04-30T00:40:24;101729.94;;;9.48;100.00
60832;BME280;46665;51.558;-0.448;2023-04-30T00:42:49;101729.84;;;9.43;100.00
60832;BME280;46665;51.558;-0.448;2023-04-30T00:45:16;101729.50;;;9.39;100.00
60832;BME280;46665;51.558;-0.448;2023-04-30T00:47:46;101732.38;;;9.32;100.00
60832;BME280;46665;51.558;-0.448;2023-04-30T00:50:11;101735.84;;;9.28;100.00
60832;BME280;46665;51.558;-0.448;2023-04-30T00:52:40;101741.41;;;9.21;100.00
60832;BME280;46665;51.558;-0.448;2023-04-30T00:55:06;101730.72;;;9.15;100.00
60832;BME280;46665;51.558;-0.448;2023-04-30T00:57:33;101735.25;;;9.09;100.00
60832;BME280;46665;51.558;-0.448;2023-04-30T01:00:00;101735.97;;;9.04;100.00
60832;BME280;46665;51.558;-0.448;2023-04-30T01:02:26;101725.84;;;9.00;100.00
60832;BME280;46665;51.558;-0.448;2023-04-30T01:04:51;101729.28;;;8.95;100.00
60832;BME280;46665;51.558;-0.448;2023-04-30T01:07:17;101724.59;;;8.90;100.00
60832;BME280;46665;51.558;-0.448;2023-04-30T01:09:42;101722.38;;;8.87;100.00
60832;BME280;46665;51.558;-0.448;2023-04-30T01:12:09;101721.53;;;8.87;100.00
60832;BME280;46665;51.558;-0.448;2023-04-30T01:15:01;101723.69;;;8.85;100.00
60832;BME280;46665;51.558;-0.448;2023-04-30T01:17:51;101725.31;;;8.86;100.00
60832;BME280;46665;51.558;-0.448;2023-04-30T01:20:19;101724.97;;;8.82;100.00
60832;BME280;46665;51.558;-0.448;2023-04-30T01:23:05;101731.22;;;8.83;100.00
60832;BME280;46665;51.558;-0.448;2023-04-30T01:26:42;101732.53;;;8.80;100.00
60832;BME280;46665;51.558;-0.448;2023-04-30T01:28:35;101724.66;;;8.79;100.00
60832;BME280;46665;51.558;-0.448;2023-04-30T01:31:01;101719.22;;;8.79;100.00
60832;BME280;46665;51.558;-0.448;2023-04-30T01:33:26;101719.78;;;8.81;100.00
60832;BME280;46665;51.558;-0.448;2023-04-30T01:44:28;101712.84;;;8.73;100.00
60832;BME280;46665;51.558;-0.448;2023-04-30T01:49:31;101710.44;;;8.60;100.00
60832;BME280;46665;51.558;-0.448;2023-04-30T01:52:31;101710.00;;;8.51;100.00
60832;BME280;46665;51.558;-0.448;2023-04-30T01:55:06;101703.41;;;8.47;100.00
60832;BME280;46665;51.558;-0.448;2023-04-30T01:57:45;101697.75;;;8.49;100.00
60832;BME280;46665;51.558;-0.448;2023-04-30T02:00:20;101703.91;;;8.44;100.00
60832;BME280;46665;51.558;-0.448;2023-04-30T02:02:45;101712.13;;;8.37;100.00
60832;BME280;46665;51.558;-0.448;2023-04-30T02:05:11;101707.69;;;8.31;100.00
60832;BME280;46665;51.558;-0.448;2023-04-30T02:07:43;101706.75;;;8.25;100.00
60832;BME280;46665;51.558;-0.448;2023-04-30T02:10:10;101700.63;;;8.18;100.00
60832;BME280;46665;51.558;-0.448;2023-04-30T02:12:39;101710.56;;;8.13;100.00
60832;BME280;46665;51.558;-0.448;2023-04-30T02:15:05;101713.97;;;8.08;100.00
60832;BME280;46665;51.558;-0.448;2023-04-30T02:17:31;101711.97;;;8.03;100.00
60832;BME280;46665;51.558;-0.448;2023-04-30T02:19:58;101701.25;;;7.97;100.00
60832;BME280;46665;51.558;-0.448;2023-04-30T02:22:23;101709.16;;;7.98;100.00
60832;BME280;46665;51.558;-0.448;2023-04-30T02:24:49;101708.34;;;7.98;100.00
60832;BME280;46665;51.558;-0.448;2023-04-30T02:27:15;101693.38;;;7.95;100.00
60832;BME280;46665;51.558;-0.448;2023-04-30T02:29:40;101699.34;;;7.97;100.00
60832;BME280;46665;51.558;-0.448;2023-04-30T02:32:06;101699.84;;;7.94;100.00
60832;BME280;46665;51.558;-0.448;2023-04-30T02:34:31;101696.78;;;7.91;100.00
60832;BME280;46665;51.558;-0.448;2023-04-30T02:36:57;101705.03;;;7.84;100.00
60832;BME280;46665;51.558;-0.448;2023-04-30T02:39:22;101709.53;;;7.78;100.00
60832;BME280;46665;51.558;-0.448;2023-04-30T02:41:47;101696.34;;;7.70;100.00
60832;BME280;46665;51.558;-0.448;2023-04-30T02:44:13;101696.56;;;7.69;100.00
60832;BME280;46665;51.558;-0.448;2023-04-30T02:46:38;101697.63;;;7.68;100.00
60832;BME280;46665;51.558;-0.448;2023-04-30T02:49:03;101696.44;;;7.64;100.00
60832;BME280;46665;51.558;-0.448;2023-04-30T02:51:29;101692.31;;;7.61;100.00
60832;BME280;46665;51.558;-0.448;2023-04-30T02:53:56;101701.16;;;7.56;100.00
60832;BME280;46665;51.558;-0.448;2023-04-30T02:56:22;101698.69;;;7.55;100.00
60832;BME280;46665;51.558;-0.448;2023-04-30T02:58:47;101690.06;;;7.46;100.00
60832;BME280;46665;51.558;-0.448;2023-04-30T03:01:12;101699.38;;;7.38;100.00
60832;BME280;46665;51.558;-0.448;2023-04-30T03:03:38;101694.09;;;7.32;100.00
60832;BME280;46665;51.558;-0.448;2023-04-30T03:06:03;101691.25;;;7.27;100.00
60832;BME280;46665;51.558;-0.448;2023-04-30T03:08:29;101692.16;;;7.21;100.00
60832;BME280;46665;51.558;-0.448;2023-04-30T03:10:54;101695.22;;;7.12;100.00
60832;BME280;46665;51.558;-0.448;2023-04-30T03:13:19;101694.03;;;7.08;100.00
60832;BME280;46665;51.558;-0.448;2023-04-30T03:15:45;101687.06;;;7.01;100.00
60832;BME280;46665;51.558;-0.448;2023-04-30T03:18:10;101692.72;;;6.99;100.00
60832;BME280;46665;51.558;-0.448;2023-04-30T03:20:36;101696.22;;;6.88;100.00
60832;BME280;46665;51.558;-0.448;2023-04-30T03:23:01;101692.75;;;6.81;100.00
60832;BME280;46665;51.558;-0.448;2023-04-30T03:25:27;101695.72;;;6.79;100.00
60832;BME280;46665;51.558;-0.448;2023-04-30T03:27:52;101694.91;;;6.79;100.00
60832;BME280;46665;51.558;-0.448;2023-04-30T03:30:18;101686.19;;;6.77;100.00
60832;BME280;46665;51.558;-0.448;2023-04-30T03:32:43;101688.88;;;6.77;100.00
60832;BME280;46665;51.558;-0.448;2023-04-30T03:35:09;101684.28;;;6.77;100.00
60832;BME280;46665;51.558;-0.448;2023-04-30T03:37:35;101687.00;;;6.77;100.00
60832;BME280;46665;51.558;-0.448;2023-04-30T03:40:00;101681.81;;;6.76;100.00
60832;BME280;46665;51.558;-0.448;2023-04-30T03:42:25;101688.63;;;6.78;100.00
60832;BME280;46665;51.558;-0.448;2023-04-30T03:44:51;101695.94;;;6.78;100.00
60832;BME280;46665;51.558;-0.448;2023-04-30T03:47:16;101687.00;;;6.77;100.00
60832;BME280;46665;51.558;-0.448;2023-04-30T03:49:41;101689.50;;;6.79;100.00
60832;BME280;46665;51.558;-0.448;2023-04-30T03:52:07;101682.41;;;6.78;100.00
60832;BME280;46665;51.558;-0.448;2023-04-30T03:54:32;101691.81;;;6.75;100.00
60832;BME280;46665;51.558;-0.448;2023-04-30T03:56:58;101689.50;;;6.79;100.00
60832;BME280;46665;51.558;-0.448;2023-04-30T03:59:24;101679.50;;;6.79;100.00
60832;BME280;46665;51.558;-0.448;2023-04-30T04:01:50;101682.06;;;6.74;100.00
60832;BME280;46665;51.558;-0.448;2023-04-30T04:04:16;101681.69;;;6.70;100.00
60832;BME280;46665;51.558;-0.448;2023-04-30T04:06:42;101679.44;;;6.67;100.00
60832;BME280;46665;51.558;-0.448;2023-04-30T04:09:08;101680.72;;;6.65;100.00
60832;BME280;46665;51.558;-0.448;2023-04-30T04:11:33;101668.47;;;6.62;100.00
60832;BME280;46665;51.558;-0.448;2023-04-30T04:13:59;101680.38;;;6.61;100.00
60832;BME280;46665;51.558;-0.448;2023-04-30T04:16:25;101672.69;;;6.58;100.00
60832;BME280;46665;51.558;-0.448;2023-04-30T04:18:51;101671.13;;;6.50;100.00
60832;BME280;46665;51.558;-0.448;2023-04-30T04:21:16;101672.41;;;6.48;100.00
60832;BME280;46665;51.558;-0.448;2023-04-30T04:23:42;101676.84;;;6.42;100.00
60832;BME280;46665;51.558;-0.448;2023-04-30T04:26:07;101673.41;;;6.35;100.00
60832;BME280;46665;51.558;-0.448;2023-04-30T04:28:32;101677.19;;;6.34;100.00
60832;BME280;46665;51.558;-0.448;2023-04-30T04:30:58;101677.41;;;6.33;100.00
60832;BME280;46665;51.558;-0.448;2023-04-30T04:33:23;101672.44;;;6.29;100.00
60832;BME280;46665;51.558;-0.448;2023-04-30T04:35:49;101678.09;;;6.28;100.00
60832;BME280;46665;51.558;-0.448;2023-04-30T04:38:14;101674.41;;;6.22;100.00
60832;BME280;46665;51.558;-0.448;2023-04-30T04:40:40;101678.19;;;6.21;100.00
60832;BME280;46665;51.558;-0.448;2023-04-30T04:43:05;101681.47;;;6.23;100.00
60832;BME280;46665;51.558;-0.448;2023-04-30T04:45:31;101676.28;;;6.22;100.00
60832;BME280;46665;51.558;-0.448;2023-04-30T04:47:57;101687.34;;;6.20;100.00
60832;BME280;46665;51.558;-0.448;2023-04-30T04:50:23;101681.75;;;6.15;100.00
60832;BME280;46665;51.558;-0.448;2023-04-30T04:52:48;101682.22;;;6.12;100.00
60832;BME280;46665;51.558;-0.448;2023-04-30T04:55:13;101679.06;;;6.15;100.00
60832;BME280;46665;51.558;-0.448;2023-04-30T04:57:39;101682.38;;;6.17;100.00
60832;BME280;46665;51.558;-0.448;2023-04-30T05:00:07;101681.56;;;6.17;100.00
60832;BME280;46665;51.558;-0.448;2023-04-30T05:02:33;101672.63;;;6.16;100.00
60832;BME280;46665;51.558;-0.448;2023-04-30T05:04:59;101685.31;;;6.16;100.00
60832;BME280;46665;51.558;-0.448;2023-04-30T05:07:25;101680.72;;;6.16;100.00
60832;BME280;46665;51.558;-0.448;2023-04-30T05:09:51;101680.28;;;6.19;100.00
60832;BME280;46665;51.558;-0.448;2023-04-30T05:12:16;101677.09;;;6.22;100.00
60832;BME280;46665;51.558;-0.448;2023-04-30T05:14:42;101677.34;;;6.21;100.00
60832;BME280;46665;51.558;-0.448;2023-04-30T05:17:08;101672.47;;;6.11;100.00
60832;BME280;46665;51.558;-0.448;2023-04-30T05:19:33;101677.88;;;6.11;100.00
60832;BME280;46665;51.558;-0.448;2023-04-30T05:21:58;101678.03;;;6.16;100.00
60832;BME280;46665;51.558;-0.448;2023-04-30T05:24:26;101690.94;;;6.14;100.00
60832;BME280;46665;51.558;-0.448;2023-04-30T05:26:51;101696.13;;;6.16;100.00
60832;BME280;46665;51.558;-0.448;2023-04-30T05:29:16;101687.34;;;6.20;100.00
60832;BME280;46665;51.558;-0.448;2023-04-30T05:31:42;101693.13;;;6.24;100.00
60832;BME280;46665;51.558;-0.448;2023-04-30T05:34:07;101689.75;;;6.28;100.00
60832;BME280;46665;51.558;-0.448;2023-04-30T05:36:33;101681.78;;;6.34;100.00
60832;BME280;46665;51.558;-0.448;2023-04-30T05:38:58;101682.94;;;6.38;100.00
60832;BME280;46665;51.558;-0.448;2023-04-30T05:41:23;101688.63;;;6.48;100.00
60832;BME280;46665;51.558;-0.448;2023-04-30T05:43:49;101685.63;;;6.56;100.00
60832;BME280;46665;51.558;-0.448;2023-04-30T05:46:14;101680.94;;;6.63;100.00
60832;BME280;46665;51.558;-0.448;2023-04-30T05:48:39;101695.81;;;6.72;100.00
60832;BME280;46665;51.558;-0.448;2023-04-30T05:51:05;101695.25;;;6.82;100.00
60832;BME280;46665;51.558;-0.448;2023-04-30T05:53:31;101692.59;;;6.94;100.00
60832;BME280;46665;51.558;-0.448;2023-04-30T05:55:56;101681.06;;;6.99;100.00
60832;BME280;46665;51.558;-0.448;2023-04-30T05:58:22;101694.03;;;7.08;100.00
60832;BME280;46665;51.558;-0.448;2023-04-30T06:00:48;101692.63;;;7.18;100.00
60832;BME280;46665;51.558;-0.448;2023-04-30T06:03:15;101693.97;;;7.27;100.00
60832;BME280;46665;51.558;-0.448;2023-04-30T06:05:40;101682.41;;;7.31;100.00
60832;BME280;46665;51.558;-0.448;2023-04-30T06:08:06;101691.25;;;7.38;100.00
60832;BME280;46665;51.558;-0.448;2023-04-30T06:10:31;101689.03;;;7.47;100.00
60832;BME280;46665;51.558;-0.448;2023-04-30T06:12:57;101693.63;;;7.58;100.00
60832;BME280;46665;51.558;-0.448;2023-04-30T06:15:22;101684.56;;;7.65;100.00
60832;BME280;46665;51.558;-0.448;2023-04-30T06:17:49;101681.50;;;7.73;100.00
60832;BME280;46665;51.558;-0.448;2023-04-30T06:20:14;101688.44;;;7.80;100.00
60832;BME280;46665;51.558;-0.448;2023-04-30T06:22:40;101694.56;;;7.88;100.00
60832;BME280;46665;51.558;-0.448;2023-04-30T06:25:06;101692.78;;;7.93;100.00
60832;BME280;46665;51.558;-0.448;2023-04-30T06:27:31;101698.66;;;8.02;100.00
60832;BME280;46665;51.558;-0.448;2023-04-30T06:29:57;101697.47;;;8.10;100.00
60832;BME280;46665;51.558;-0.448;2023-04-30T06:32:22;101704.88;;;8.14;100.00
60832;BME280;46665;51.558;-0.448;2023-04-30T06:34:48;101704.75;;;8.21;100.00
60832;BME280;46665;51.558;-0.448;2023-04-30T06:37:13;101697.78;;;8.25;100.00
60832;BME280;46665;51.558;-0.448;2023-04-30T06:39:39;101707.78;;;8.36;100.00
60832;BME280;46665;51.558;-0.448;2023-04-30T06:42:04;101706.34;;;8.45;100.00
60832;BME280;46665;51.558;-0.448;2023-04-30T06:44:30;101703.84;;;8.56;100.00
60832;BME280;46665;51.558;-0.448;2023-04-30T06:46:55;101696.66;;;8.61;100.00
60832;BME280;46665;51.558;-0.448;2023-04-30T06:49:21;101712.31;;;8.71;100.00
60832;BME280;46665;51.558;-0.448;2023-04-30T06:51:46;101702.59;;;8.75;100.00
60832;BME280;46665;51.558;-0.448;2023-04-30T06:54:12;101704.25;;;8.76;100.00
60832;BME280;46665;51.558;-0.448;2023-04-30T06:56:38;101713.81;;;8.79;100.00
60832;BME280;46665;51.558;-0.448;2023-04-30T06:59:03;101714.44;;;8.86;100.00
60832;BME280;46665;51.558;-0.448;2023-04-30T07:01:29;101704.75;;;8.90;100.00
60832;BME280;46665;51.558;-0.448;2023-04-30T07:03:54;101710.50;;;8.94;100.00
60832;BME280;46665;51.558;-0.448;2023-04-30T07:06:20;101710.22;;;9.07;100.00
60832;BME280;46665;51.558;-0.448;2023-04-30T07:08:45;101714.53;;;9.20;100.00
60832;BME280;46665;51.558;-0.448;2023-04-30T07:11:11;101708.44;;;9.29;100.00
60832;BME280;46665;51.558;-0.448;2023-04-30T07:13:37;101708.03;;;9.38;100.00
60832;BME280;46665;51.558;-0.448;2023-04-30T07:16:03;101706.59;;;9.52;100.00
60832;BME280;46665;51.558;-0.448;2023-04-30T07:18:28;101707.59;;;9.63;100.00
60832;BME280;46665;51.558;-0.448;2023-04-30T07:20:54;101711.28;;;9.73;100.00
60832;BME280;46665;51.558;-0.448;2023-04-30T07:23:20;101710.63;;;9.83;100.00
60832;BME280;46665;51.558;-0.448;2023-04-30T07:25:45;101708.28;;;9.92;100.00
60832;BME280;46665;51.558;-0.448;2023-04-30T07:28:10;101712.00;;;10.03;100.00
60832;BME280;46665;51.558;-0.448;2023-04-30T07:30:36;101700.16;;;10.14;100.00
60832;BME280;46665;51.558;-0.448;2023-04-30T07:33:01;101702.06;;;10.13;100.00
60832;BME280;46665;51.558;-0.448;2023-04-30T07:35:27;101704.63;;;10.25;100.00
60832;BME280;46665;51.558;-0.448;2023-04-30T07:37:52;101704.78;;;10.35;100.00
60832;BME280;46665;51.558;-0.448;2023-04-30T07:40:18;101699.75;;;10.44;100.00
60832;BME280;46665;51.558;-0.448;2023-04-30T07:42:43;101702.88;;;10.58;100.00
60832;BME280;46665;51.558;-0.448;2023-04-30T07:45:11;101697.31;;;10.70;100.00
60832;BME280;46665;51.558;-0.448;2023-04-30T07:47:37;101696.06;;;10.82;100.00
60832;BME280;46665;51.558;-0.448;2023-04-30T07:50:03;101704.59;;;10.91;100.00
60832;BME280;46665;51.558;-0.448;2023-04-30T07:52:28;101701.44;;;10.99;100.00
60832;BME280;46665;51.558;-0.448;2023-04-30T07:54:54;101697.41;;;11.07;100.00
60832;BME280;46665;51.558;-0.448;2023-04-30T07:57:19;101696.72;;;11.22;100.00
60832;BME280;46665;51.558;-0.448;2023-04-30T07:59:44;101698.44;;;11.33;100.00
60832;BME280;46665;51.558;-0.448;2023-04-30T08:02:10;101702.84;;;11.39;100.00
60832;BME280;46665;51.558;-0.448;2023-04-30T08:04:35;101705.34;;;11.46;100.00
60832;BME280;46665;51.558;-0.448;2023-04-30T08:07:00;101706.72;;;11.48;100.00
60832;BME280;46665;51.558;-0.448;2023-04-30T08:09:26;101700.47;;;11.48;100.00
60832;BME280;46665;51.558;-0.448;2023-04-30T08:11:52;101714.94;;;11.54;100.00
60832;BME280;46665;51.558;-0.448;2023-04-30T08:14:17;101704.03;;;11.54;100.00
60832;BME280;46665;51.558;-0.448;2023-04-30T08:16:44;101704.38;;;11.62;100.00
60832;BME280;46665;51.558;-0.448;2023-04-30T08:19:10;101709.56;;;11.64;100.00
60832;BME280;46665;51.558;-0.448;2023-04-30T08:21:35;101708.56;;;11.75;100.00
60832;BME280;46665;51.558;-0.448;2023-04-30T08:24:01;101705.13;;;11.90;100.00
60832;BME280;46665;51.558;-0.448;2023-04-30T08:26:26;101712.50;;;11.95;100.00
60832;BME280;46665;51.558;-0.448;2023-04-30T08:28:52;101704.66;;;12.03;100.00
60832;BME280;46665;51.558;-0.448;2023-04-30T08:31:17;101704.75;;;12.19;100.00
60832;BME280;46665;51.558;-0.448;2023-04-30T08:33:42;101704.22;;;12.27;100.00
60832;BME280;46665;51.558;-0.448;2023-04-30T08:36:08;101705.63;;;12.40;100.00
60832;BME280;46665;51.558;-0.448;2023-04-30T08:38:33;101705.06;;;12.38;98.33
60832;BME280;46665;51.558;-0.448;2023-04-30T08:41:11;101704.00;;;12.33;99.10
60832;BME280;46665;51.558;-0.448;2023-04-30T08:43:37;101705.06;;;12.32;98.54
60832;BME280;46665;51.558;-0.448;2023-04-30T08:46:04;101699.91;;;12.36;100.00
60832;BME280;46665;51.558;-0.448;2023-04-30T08:48:30;101698.03;;;12.52;100.00
60832;BME280;46665;51.558;-0.448;2023-04-30T08:51:01;101698.63;;;12.69;99.76
60832;BME280;46665;51.558;-0.448;2023-04-30T08:53:28;101688.81;;;12.84;98.02
60832;BME280;46665;51.558;-0.448;2023-04-30T08:55:53;101691.31;;;13.00;97.16
60832;BME280;46665;51.558;-0.448;2023-04-30T08:58:19;101689.69;;;13.15;96.68
60832;BME280;46665;51.558;-0.448;2023-04-30T09:00:44;101683.66;;;13.23;95.47
60832;BME280;46665;51.558;-0.448;2023-04-30T09:03:09;101692.44;;;13.30;92.54
60832;BME280;46665;51.558;-0.448;2023-04-30T09:05:36;101693.25;;;13.41;93.82
60832;BME280;46665;51.558;-0.448;2023-04-30T09:08:02;101698.16;;;13.44;93.96
60832;BME280;46665;51.558;-0.448;2023-04-30T09:10:31;101694.34;;;13.55;92.70
60832;BME280;46665;51.558;-0.448;2023-04-30T09:13:06;101689.13;;;13.64;93.13
60832;BME280;46665;51.558;-0.448;2023-04-30T09:15:33;101688.31;;;13.63;91.28
60832;BME280;46665;51.558;-0.448;2023-04-30T09:20:34;101691.63;;;13.50;90.61
60832;BME280;46665;51.558;-0.448;2023-04-30T09:23:07;101681.78;;;13.34;88.26
60832;BME280;46665;51.558;-0.448;2023-04-30T09:25:42;101681.78;;;13.34;88.61
60832;BME280;46665;51.558;-0.448;2023-04-30T09:28:12;101677.41;;;13.43;89.00
60832;BME280;46665;51.558;-0.448;2023-04-30T09:30:41;101670.81;;;13.44;88.45
60832;BME280;46665;51.558;-0.448;2023-04-30T09:33:07;101675.75;;;13.52;89.63
60832;BME280;46665;51.558;-0.448;2023-04-30T09:35:34;101685.28;;;13.70;87.00
60832;BME280;46665;51.558;-0.448;2023-04-30T09:38:00;101677.88;;;13.81;82.77
60832;BME280;46665;51.558;-0.448;2023-04-30T09:40:40;101677.03;;;13.96;82.90
60832;BME280;46665;51.558;-0.448;2023-04-30T09:43:07;101686.00;;;14.06;80.96
60832;BME280;46665;51.558;-0.448;2023-04-30T09:45:59;101679.16;;;14.09;79.78
60832;BME280;46665;51.558;-0.448;2023-04-30T09:48:26;101670.88;;;14.24;80.46
60832;BME280;46665;51.558;-0.448;2023-04-30T09:50:55;101673.34;;;14.26;78.66
60832;BME280;46665;51.558;-0.448;2023-04-30T09:53:21;101674.66;;;14.39;77.86
60832;BME280;46665;51.558;-0.448;2023-04-30T09:55:49;101679.28;;;14.43;77.64
60832;BME280;46665;51.558;-0.448;2023-04-30T09:58:16;101664.47;;;14.55;77.74
60832;BME280;46665;51.558;-0.448;2023-04-30T10:00:44;101672.03;;;14.68;74.77
60832;BME280;46665;51.558;-0.448;2023-04-30T10:03:12;101668.56;;;14.52;72.02
60832;BME280;46665;51.558;-0.448;2023-04-30T10:05:41;101677.78;;;14.71;76.67
60832;BME280;46665;51.558;-0.448;2023-04-30T10:08:29;101677.53;;;14.68;75.89
60832;BME280;46665;51.558;-0.448;2023-04-30T10:11:04;101666.03;;;14.66;74.15
60832;BME280;46665;51.558;-0.448;2023-04-30T10:13:34;101664.94;;;14.67;73.37
60832;BME280;46665;51.558;-0.448;2023-04-30T10:16:07;101665.38;;;14.84;75.71
60832;BME280;46665;51.558;-0.448;2023-04-30T10:18:37;101666.91;;;14.95;73.75
60832;BME280;46665;51.558;-0.448;2023-04-30T10:21:06;101661.31;;;15.11;75.19
60832;BME280;46665;51.558;-0.448;2023-04-30T10:23:37;101655.75;;;15.21;75.01
60832;BME280;46665;51.558;-0.448;2023-04-30T10:26:03;101650.16;;;15.31;73.84
60832;BME280;46665;51.558;-0.448;2023-04-30T10:28:29;101645.44;;;15.42;74.06
60832;BME280;46665;51.558;-0.448;2023-04-30T10:30:56;101652.59;;;15.38;74.21
60832;BME280;46665;51.558;-0.448;2023-04-30T10:36:45;101651.28;;;15.30;75.22
60832;BME280;46665;51.558;-0.448;2023-04-30T10:39:14;101642.69;;;15.42;75.12
60832;BME280;46665;51.558;-0.448;2023-04-30T10:41:39;101641.56;;;15.43;73.57
60832;BME280;46665;51.558;-0.448;2023-04-30T10:44:08;101631.50;;;15.33;71.32
60832;BME280;46665;51.558;-0.448;2023-04-30T10:46:34;101632.47;;;15.48;73.54
60832;BME280;46665;51.558;-0.448;2023-04-30T10:49:01;101634.09;;;15.49;73.10
60832;BME280;46665;51.558;-0.448;2023-04-30T10:51:47;101630.78;;;15.52;73.43
60832;BME280;46665;51.558;-0.448;2023-04-30T10:54:24;101630.72;;;15.57;73.19
60832;BME280;46665;51.558;-0.448;2023-04-30T10:56:50;101624.84;;;15.69;73.59
60832;BME280;46665;51.558;-0.448;2023-04-30T10:59:16;101613.84;;;15.74;69.87
60832;BME280;46665;51.558;-0.448;2023-04-30T11:01:58;101615.16;;;15.76;68.71
60832;BME280;46665;51.558;-0.448;2023-04-30T11:04:24;101616.22;;;15.80;70.73
60832;BME280;46665;51.558;-0.448;2023-04-30T11:09:40;101621.47;;;15.77;65.98
60832;BME280;46665;51.558;-0.448;2023-04-30T11:12:14;101615.53;;;15.65;67.66
60832;BME280;46665;51.558;-0.448;2023-04-30T11:14:44;101605.81;;;15.53;67.80
60832;BME280;46665;51.558;-0.448;2023-04-30T11:17:11;101603.81;;;15.59;68.35
60832;BME280;46665;51.558;-0.448;2023-04-30T11:19:48;101613.31;;;15.72;67.88
60832;BME280;46665;51.558;-0.448;2023-04-30T11:22:15;101603.53;;;15.60;68.21
60832;BME280;46665;51.558;-0.448;2023-04-30T11:25:04;101605.00;;;15.77;68.72
60832;BME280;46665;51.558;-0.448;2023-04-30T11:27:32;101587.00;;;15.90;66.67
60832;BME280;46665;51.558;-0.448;2023-04-30T11:29:58;101593.78;;;15.97;66.01
60832;BME280;46665;51.558;-0.448;2023-04-30T11:32:26;101593.44;;;16.04;64.93
60832;BME280;46665;51.558;-0.448;2023-04-30T11:34:55;101588.47;;;16.06;65.31
60832;BME280;46665;51.558;-0.448;2023-04-30T11:37:32;101585.59;;;15.92;64.70
60832;BME280;46665;51.558;-0.448;2023-04-30T11:40:00;101586.78;;;15.86;64.76
60832;BME280;46665;51.558;-0.448;2023-04-30T11:42:27;101577.97;;;15.89;65.94
60832;BME280;46665;51.558;-0.448;2023-04-30T11:45:07;101583.25;;;15.86;65.42
60832;BME280;46665;51.558;-0.448;2023-04-30T11:50:09;101578.97;;;15.74;66.13
60832;BME280;46665;51.558;-0.448;2023-04-30T11:52:35;101572.84;;;15.82;66.15
60832;BME280;46665;51.558;-0.448;2023-04-30T11:55:04;101582.44;;;15.85;66.09
60832;BME280;46665;51.558;-0.448;2023-04-30T11:57:40;101580.78;;;15.84;64.75
60832;BME280;46665;51.558;-0.448;2023-04-30T12:00:09;101572.66;;;15.74;65.61
60832;BME280;46665;51.558;-0.448;2023-04-30T12:02:35;101568.25;;;15.78;65.58
60832;BME280;46665;51.558;-0.448;2023-04-30T12:05:01;101581.53;;;15.90;67.87
60832;BME280;46665;51.558;-0.448;2023-04-30T12:07:26;101571.44;;;15.85;65.24
60832;BME280;46665;51.558;-0.448;2023-04-30T12:09:54;101568.84;;;15.94;66.13
60832;BME280;46665;51.558;-0.448;2023-04-30T12:12:29;101563.09;;;15.95;64.47
60832;BME280;46665;51.558;-0.448;2023-04-30T12:14:55;101566.03;;;15.99;64.59
60832;BME280;46665;51.558;-0.448;2023-04-30T12:17:34;101563.50;;;16.02;65.18
60832;BME280;46665;51.558;-0.448;2023-04-30T12:20:00;101561.97;;;16.15;64.70
60832;BME280;46665;51.558;-0.448;2023-04-30T12:22:26;101556.91;;;16.22;64.68
60832;BME280;46665;51.558;-0.448;2023-04-30T12:24:53;101555.78;;;16.42;65.32
60832;BME280;46665;51.558;-0.448;2023-04-30T12:27:20;101553.78;;;16.48;64.58
60832;BME280;46665;51.558;-0.448;2023-04-30T12:29:46;101558.09;;;16.54;63.88
60832;BME280;46665;51.558;-0.448;2023-04-30T12:32:13;101554.56;;;16.67;64.11
60832;BME280;46665;51.558;-0.448;2023-04-30T12:34:43;101562.75;;;16.73;61.94
60832;BME280;46665;51.558;-0.448;2023-04-30T12:37:09;101552.78;;;16.77;62.65
60832;BME280;46665;51.558;-0.448;2023-04-30T12:39:34;101555.09;;;16.69;62.21
60832;BME280;46665;51.558;-0.448;2023-04-30T12:42:01;101554.22;;;16.74;60.84
60832;BME280;46665;51.558;-0.448;2023-04-30T12:44:27;101538.56;;;16.88;62.57
60832;BME280;46665;51.558;-0.448;2023-04-30T12:46:57;101551.94;;;16.95;61.56
60832;BME280;46665;51.558;-0.448;2023-04-30T12:49:26;101545.22;;;17.01;60.22
60832;BME280;46665;51.558;-0.448;2023-04-30T12:52:02;101544.16;;;16.83;59.97
60832;BME280;46665;51.558;-0.448;2023-04-30T12:54:30;101534.16;;;16.74;60.18
60832;BME280;46665;51.558;-0.448;2023-04-30T12:56:58;101544.53;;;16.77;59.66
60832;BME280;46665;51.558;-0.448;2023-04-30T12:59:26;101545.16;;;16.74;60.72
60832;BME280;46665;51.558;-0.448;2023-04-30T13:01:51;101539.66;;;16.74;59.14